createdAt,value
2022-11-20T00:00:13.442Z,86.58
2022-11-20T00:01:16.412Z,86.64
2022-11-20T00:02:19.930Z,87.36
2022-11-20T00:03:30.622Z,87.20
2022-11-20T00:04:36.810Z,86.85
2022-11-20T00:05:40.098Z,87.08
2022-11-20T00:06:43.591Z,87.53
2022-11-20T00:07:49.126Z,87.27
2022-11-20T00:08:54.475Z,87.21
2022-11-20T00:10:00.925Z,88.15
2022-11-20T00:11:04.095Z,88.14
2022-11-20T00:12:07.595Z,87.18
2022-11-20T00:13:24.358Z,87.53
2022-11-20T00:14:28.285Z,87.77
2022-11-20T00:15:31.985Z,87.23
2022-11-20T00:16:35.374Z,88.42
2022-11-20T00:17:38.410Z,88.42
2022-11-20T00:18:41.526Z,88.06
2022-11-20T00:19:50.549Z,88.16
2022-11-20T00:20:53.850Z,88.29
2022-11-20T00:21:57.113Z,88.09
2022-11-20T00:23:00.093Z,88.58
2022-11-20T00:24:03.689Z,87.97
2022-11-20T00:25:06.650Z,88.87
2022-11-20T00:26:10.050Z,87.96
2022-11-20T00:27:13.144Z,88.23
2022-11-20T00:28:15.997Z,88.95
2022-11-20T00:30:39.875Z,89.04
2022-11-20T00:31:43.569Z,89.30
2022-11-20T00:32:46.646Z,88.45
2022-11-20T00:33:50.449Z,87.18
2022-11-20T00:34:54.358Z,86.95
2022-11-20T00:35:57.723Z,87.15
2022-11-20T00:37:01.724Z,87.47
2022-11-20T00:38:05.121Z,88.30
2022-11-20T00:39:09.336Z,87.25
2022-11-20T00:40:12.816Z,87.29
2022-11-20T00:41:15.804Z,87.96
2022-11-20T00:42:19.595Z,87.21
2022-11-20T00:43:30.425Z,87.80
2022-11-20T00:44:33.338Z,87.23
2022-11-20T00:45:37.119Z,86.69
2022-11-20T00:46:42.357Z,88.42
2022-11-20T00:47:45.668Z,87.25
2022-11-20T00:48:48.928Z,87.26
2022-11-20T00:49:52.948Z,88.23
2022-11-20T00:50:56.619Z,88.06
2022-11-20T00:51:59.381Z,87.02
2022-11-20T00:53:03.588Z,87.61
2022-11-20T00:54:06.471Z,86.86
2022-11-20T00:55:09.759Z,86.64
2022-11-20T00:56:15.083Z,86.45
2022-11-20T00:57:17.753Z,86.56
2022-11-20T00:58:21.751Z,86.80
2022-11-20T00:59:24.840Z,86.64
2022-11-20T01:00:27.924Z,86.51
2022-11-20T01:01:37.511Z,87.50
2022-11-20T01:02:41.243Z,86.91
2022-11-20T01:03:44.625Z,86.48
2022-11-20T01:04:47.924Z,86.54
2022-11-20T01:05:53.655Z,87.75
2022-11-20T01:06:56.821Z,86.78
2022-11-20T01:07:59.724Z,86.31
2022-11-20T01:09:02.932Z,86.57
2022-11-20T01:10:06.999Z,85.76
2022-11-20T01:11:09.666Z,86.26
2022-11-20T01:12:12.635Z,86.18
2022-11-20T01:13:16.078Z,86.66
2022-11-20T01:14:20.231Z,87.22
2022-11-20T01:15:23.415Z,87.24
2022-11-20T01:16:26.697Z,85.96
2022-11-20T01:17:30.187Z,85.97
2022-11-20T01:18:33.397Z,86.99
2022-11-20T01:19:38.096Z,86.76
2022-11-20T01:20:40.952Z,86.46
2022-11-20T01:21:44.157Z,86.64
2022-11-20T01:22:50.412Z,86.09
2022-11-20T01:23:53.263Z,86.43
2022-11-20T01:24:57.474Z,86.92
2022-11-20T01:26:00.248Z,87.35
2022-11-20T01:27:03.247Z,87.45
2022-11-20T01:28:06.510Z,87.07
2022-11-20T01:29:09.597Z,86.34
2022-11-20T01:30:12.598Z,85.78
2022-11-20T01:31:15.647Z,86.28
2022-11-20T01:32:18.833Z,85.41
2022-11-20T01:33:22.146Z,86.18
2022-11-20T01:34:25.195Z,85.94
2022-11-20T01:35:28.387Z,86.41
2022-11-20T01:36:32.670Z,85.80
2022-11-20T01:37:35.775Z,85.93
2022-11-20T01:38:38.842Z,86.14
2022-11-20T01:39:42.152Z,86.55
2022-11-20T01:40:46.743Z,87.02
2022-11-20T01:42:00.366Z,84.93
2022-11-20T01:43:03.238Z,85.70
2022-11-20T01:44:06.106Z,84.67
2022-11-20T01:45:08.982Z,85.44
2022-11-20T01:46:13.194Z,85.37
2022-11-20T01:47:17.402Z,85.49
2022-11-20T01:48:20.283Z,85.24
2022-11-20T01:49:23.497Z,86.09
2022-11-20T01:50:27.043Z,84.93
2022-11-20T01:51:32.622Z,84.67
2022-11-20T01:52:35.487Z,85.08
2022-11-20T01:53:38.647Z,84.47
2022-11-20T01:54:51.545Z,83.70
2022-11-20T01:55:57.101Z,83.38
2022-11-20T01:57:03.969Z,83.96
2022-11-20T01:58:06.728Z,84.73
2022-11-20T01:59:09.804Z,83.87
2022-11-20T02:00:12.889Z,84.17
2022-11-20T02:01:15.913Z,85.00
2022-11-20T02:02:19.256Z,84.19
2022-11-20T02:03:23.044Z,83.29
2022-11-20T02:04:28.078Z,83.28
2022-11-20T02:05:31.052Z,83.54
2022-11-20T02:06:33.615Z,83.95
2022-11-20T02:07:36.687Z,83.49
2022-11-20T02:08:39.991Z,84.74
2022-11-20T02:09:43.882Z,85.55
2022-11-20T02:10:46.859Z,83.69
2022-11-20T02:11:49.843Z,84.31
2022-11-20T02:12:53.754Z,84.14
2022-11-20T02:13:57.633Z,84.49
2022-11-20T02:15:04.714Z,85.44
2022-11-20T02:16:07.686Z,85.19
2022-11-20T02:17:10.562Z,85.67
2022-11-20T02:18:13.972Z,85.46
2022-11-20T02:19:17.225Z,85.91
2022-11-20T02:20:20.518Z,84.56
2022-11-20T02:21:25.739Z,85.35
2022-11-20T02:22:28.940Z,84.43
2022-11-20T02:23:32.210Z,85.39
2022-11-20T02:24:35.293Z,85.89
2022-11-20T02:25:38.361Z,86.37
2022-11-20T02:26:41.453Z,86.67
2022-11-20T02:27:44.830Z,85.51
2022-11-20T02:28:49.353Z,87.05
2022-11-20T02:29:52.425Z,85.41
2022-11-20T02:30:58.159Z,85.98
2022-11-20T02:32:01.457Z,85.37
2022-11-20T02:33:04.641Z,87.05
2022-11-20T02:34:08.524Z,86.07
2022-11-20T02:35:11.467Z,86.61
2022-11-20T02:36:22.884Z,85.54
2022-11-20T02:37:26.062Z,85.01
2022-11-20T02:38:29.758Z,85.13
2022-11-20T02:39:32.846Z,85.46
2022-11-20T02:40:36.127Z,85.91
2022-11-20T02:41:40.120Z,85.70
2022-11-20T02:42:43.307Z,85.89
2022-11-20T02:43:46.501Z,86.34
2022-11-20T02:44:49.768Z,86.02
2022-11-20T02:45:54.434Z,86.37
2022-11-20T02:46:57.771Z,85.89
2022-11-20T02:48:01.049Z,85.95
2022-11-20T02:49:04.350Z,85.71
2022-11-20T02:50:07.828Z,85.78
2022-11-20T02:51:10.804Z,86.51
2022-11-20T02:52:19.451Z,86.56
2022-11-20T02:53:22.513Z,87.03
2022-11-20T02:54:25.367Z,86.32
2022-11-20T02:55:28.235Z,86.81
2022-11-20T02:56:31.331Z,87.06
2022-11-20T02:57:34.809Z,87.45
2022-11-20T02:58:38.210Z,87.25
2022-11-20T02:59:41.386Z,87.91
2022-11-20T03:00:44.975Z,88.07
2022-11-20T03:01:54.745Z,88.55
2022-11-20T03:02:58.410Z,87.85
2022-11-20T03:04:08.363Z,88.15
2022-11-20T03:05:11.534Z,87.77
2022-11-20T03:06:14.192Z,88.06
2022-11-20T03:07:18.419Z,88.07
2022-11-20T03:08:21.576Z,88.33
2022-11-20T03:09:24.880Z,88.63
2022-11-20T03:10:28.967Z,87.90
2022-11-20T03:11:32.156Z,88.32
2022-11-20T03:12:35.438Z,87.99
2022-11-20T03:13:39.248Z,88.47
2022-11-20T03:14:43.025Z,87.34
2022-11-20T03:15:46.105Z,88.74
2022-11-20T03:16:51.227Z,88.04
2022-11-20T03:17:54.311Z,86.23
2022-11-20T03:18:58.276Z,85.03
2022-11-20T03:20:02.835Z,85.93
2022-11-20T03:21:05.919Z,86.32
2022-11-20T03:22:09.194Z,86.05
2022-11-20T03:23:12.423Z,85.76
2022-11-20T03:24:15.758Z,84.88
2022-11-20T03:25:19.010Z,85.24
2022-11-20T03:26:22.123Z,85.13
2022-11-20T03:27:25.227Z,84.59
2022-11-20T03:28:29.635Z,84.84
2022-11-20T03:29:33.819Z,84.87
2022-11-20T03:30:36.904Z,85.35
2022-11-20T03:31:39.985Z,85.15
2022-11-20T03:32:43.069Z,85.29
2022-11-20T03:33:46.251Z,84.92
2022-11-20T03:34:52.191Z,84.69
2022-11-20T03:35:54.889Z,85.25
2022-11-20T03:36:58.044Z,85.33
2022-11-20T03:38:05.631Z,85.27
2022-11-20T03:39:09.425Z,85.31
2022-11-20T03:40:27.749Z,86.44
2022-11-20T03:41:42.417Z,85.68
2022-11-20T03:42:45.492Z,85.81
2022-11-20T03:43:48.567Z,85.90
2022-11-20T03:44:51.346Z,86.64
2022-11-20T03:45:54.340Z,85.92
2022-11-20T03:46:57.080Z,86.24
2022-11-20T03:48:00.066Z,86.10
2022-11-20T03:49:03.146Z,86.79
2022-11-20T03:50:06.122Z,88.04
2022-11-20T03:51:08.789Z,88.31
2022-11-20T03:52:11.887Z,88.25
2022-11-20T03:53:14.637Z,88.65
2022-11-20T03:54:18.035Z,88.47
2022-11-20T03:55:21.515Z,88.50
2022-11-20T03:56:24.917Z,88.63
2022-11-20T03:57:28.190Z,88.63
2022-11-20T03:58:31.361Z,88.31
2022-11-20T03:59:34.551Z,87.83
2022-11-20T04:00:38.057Z,87.21
2022-11-20T04:01:45.438Z,86.18
2022-11-20T04:02:46.761Z,86.48
2022-11-20T04:03:49.941Z,86.78
2022-11-20T04:04:52.709Z,86.22
2022-11-20T04:05:57.659Z,85.67
2022-11-20T04:07:01.284Z,85.72
2022-11-20T04:08:04.711Z,84.09
2022-11-20T04:10:29.826Z,83.84
2022-11-20T04:11:33.004Z,83.65
2022-11-20T04:12:35.875Z,83.72
2022-11-20T04:13:39.269Z,83.43
2022-11-20T04:14:42.857Z,84.06
2022-11-20T04:15:46.042Z,84.62
2022-11-20T04:16:49.211Z,84.71
2022-11-20T04:17:53.008Z,84.77
2022-11-20T04:18:55.710Z,84.57
2022-11-20T04:20:01.238Z,83.91
2022-11-20T04:21:04.368Z,83.47
2022-11-20T04:22:08.219Z,84.62
2022-11-20T04:23:12.714Z,85.44
2022-11-20T04:24:16.005Z,84.78
2022-11-20T04:25:19.596Z,84.69
2022-11-20T04:26:27.191Z,85.31
2022-11-20T04:27:31.698Z,85.98
2022-11-20T04:28:36.921Z,85.44
2022-11-20T04:29:40.022Z,86.25
2022-11-20T04:30:42.775Z,85.73
2022-11-20T04:31:47.168Z,85.83
2022-11-20T04:32:50.155Z,85.81
2022-11-20T04:33:56.522Z,86.54
2022-11-20T04:34:59.388Z,86.54
2022-11-20T04:36:02.702Z,86.32
2022-11-20T04:37:06.305Z,85.80
2022-11-20T04:38:09.986Z,86.02
2022-11-20T04:39:12.628Z,86.00
2022-11-20T04:40:15.605Z,86.07
2022-11-20T04:41:18.786Z,86.24
2022-11-20T04:42:24.020Z,85.92
2022-11-20T04:43:26.784Z,86.32
2022-11-20T04:44:30.163Z,86.15
2022-11-20T04:45:33.465Z,86.11
2022-11-20T04:46:46.541Z,86.48
2022-11-20T04:47:49.134Z,86.99
2022-11-20T04:48:52.626Z,86.94
2022-11-20T04:49:55.886Z,87.11
2022-11-20T04:50:59.458Z,87.18
2022-11-20T04:52:02.598Z,87.44
2022-11-20T04:53:06.893Z,87.33
2022-11-20T04:54:10.279Z,86.48
2022-11-20T04:55:13.318Z,86.41
2022-11-20T04:56:16.040Z,86.03
2022-11-20T04:57:18.891Z,85.80
2022-11-20T04:58:23.059Z,86.21
2022-11-20T04:59:26.606Z,85.59
2022-11-20T05:00:29.885Z,84.93
2022-11-20T05:01:32.826Z,85.45
2022-11-20T05:02:36.144Z,85.21
2022-11-20T05:03:42.284Z,85.52
2022-11-20T05:04:43.868Z,85.94
2022-11-20T05:05:47.046Z,85.75
2022-11-20T05:06:50.759Z,85.60
2022-11-20T05:07:55.022Z,85.65
2022-11-20T05:08:58.255Z,85.36
2022-11-20T05:10:01.590Z,85.11
2022-11-20T05:11:04.588Z,85.56
2022-11-20T05:12:07.866Z,85.37
2022-11-20T05:13:10.514Z,85.82
2022-11-20T05:14:13.803Z,85.79
2022-11-20T05:15:16.672Z,85.96
2022-11-20T05:16:19.654Z,85.85
2022-11-20T05:17:22.636Z,86.05
2022-11-20T05:18:25.939Z,84.08
2022-11-20T05:19:29.147Z,84.50
2022-11-20T05:20:32.599Z,84.44
2022-11-20T05:21:36.711Z,84.82
2022-11-20T05:22:39.997Z,84.11
2022-11-20T05:23:43.261Z,84.41
2022-11-20T05:24:46.645Z,83.70
2022-11-20T05:25:54.650Z,83.64
2022-11-20T05:26:55.774Z,82.47
2022-11-20T05:27:58.851Z,83.12
2022-11-20T05:29:05.239Z,82.46
2022-11-20T05:30:07.873Z,82.35
2022-11-20T05:31:11.392Z,82.46
2022-11-20T05:33:35.763Z,82.79
2022-11-20T05:34:39.041Z,83.05
2022-11-20T05:35:42.327Z,83.38
2022-11-20T05:36:50.429Z,83.22
2022-11-20T05:37:58.084Z,82.61
2022-11-20T05:39:01.977Z,83.00
2022-11-20T05:40:07.813Z,82.27
2022-11-20T05:41:18.989Z,82.19
2022-11-20T05:42:22.096Z,81.98
2022-11-20T05:43:24.734Z,82.54
2022-11-20T05:47:06.567Z,81.51
2022-11-20T05:50:50.665Z,81.79
2022-11-20T05:53:07.416Z,80.44
2022-11-20T05:54:10.104Z,79.70
2022-11-20T05:55:21.080Z,79.68
2022-11-20T05:57:52.984Z,79.98
2022-11-20T05:59:09.117Z,80.86
2022-11-20T06:00:12.405Z,80.62
2022-11-20T06:02:37.239Z,80.33
2022-11-20T06:03:40.284Z,80.14
2022-11-20T06:04:43.678Z,80.35
2022-11-20T06:05:51.989Z,80.39
2022-11-20T06:07:10.824Z,80.28
2022-11-20T06:08:13.788Z,79.87
2022-11-20T06:09:18.846Z,80.37
2022-11-20T06:10:31.214Z,80.68
2022-11-20T06:11:35.474Z,79.00
2022-11-20T06:12:40.037Z,79.81
2022-11-20T06:13:44.151Z,79.80
2022-11-20T06:14:51.422Z,79.67
2022-11-20T06:15:58.202Z,79.57
2022-11-20T06:17:12.187Z,79.84
2022-11-20T06:18:15.299Z,80.11
2022-11-20T06:19:28.617Z,80.09
2022-11-20T06:21:54.451Z,80.25
2022-11-20T06:22:57.830Z,79.93
2022-11-20T06:24:04.198Z,79.54
2022-11-20T06:25:07.665Z,79.92
2022-11-20T06:26:10.951Z,79.38
2022-11-20T06:27:13.945Z,79.79
2022-11-20T06:28:18.655Z,79.54
2022-11-20T06:29:22.323Z,79.95
2022-11-20T06:30:25.638Z,80.03
2022-11-20T06:31:28.622Z,79.77
2022-11-20T06:32:31.789Z,80.11
2022-11-20T06:33:35.176Z,80.30
2022-11-20T06:34:44.205Z,80.76
2022-11-20T06:35:47.282Z,80.39
2022-11-20T06:36:53.115Z,80.81
2022-11-20T06:37:57.434Z,81.09
2022-11-20T06:39:11.147Z,80.78
2022-11-20T06:40:16.083Z,80.51
2022-11-20T06:41:28.478Z,80.65
2022-11-20T06:43:52.490Z,80.54
2022-11-20T06:44:55.873Z,80.92
2022-11-20T06:46:08.538Z,81.00
2022-11-20T06:47:13.685Z,80.59
2022-11-20T06:48:16.757Z,80.84
2022-11-20T06:50:40.618Z,80.94
2022-11-20T06:51:43.703Z,80.65
2022-11-20T06:52:46.474Z,80.70
2022-11-20T06:53:49.771Z,80.71
2022-11-20T06:54:52.435Z,81.08
2022-11-20T06:58:41.591Z,80.92
2022-11-20T06:59:44.996Z,81.08
2022-11-20T07:00:48.340Z,81.56
2022-11-20T07:01:51.880Z,81.57
2022-11-20T07:02:58.418Z,81.65
2022-11-20T07:04:01.407Z,80.96
2022-11-20T07:05:04.376Z,81.52
2022-11-20T07:06:07.378Z,81.33
2022-11-20T07:07:11.398Z,81.37
2022-11-20T07:08:14.543Z,80.63
2022-11-20T07:09:24.624Z,80.73
2022-11-20T07:10:32.181Z,80.54
2022-11-20T07:11:43.856Z,80.34
2022-11-20T07:12:55.145Z,80.28
2022-11-20T07:13:58.834Z,80.26
2022-11-20T07:16:22.069Z,80.48
2022-11-20T07:17:24.779Z,80.79
2022-11-20T07:18:27.618Z,80.73
2022-11-20T07:19:30.857Z,81.08
2022-11-20T07:20:35.424Z,81.47
2022-11-20T07:21:38.823Z,80.90
2022-11-20T07:22:44.333Z,80.90
2022-11-20T07:23:47.337Z,80.68
2022-11-20T07:24:50.912Z,80.88
2022-11-20T07:25:54.184Z,80.84
2022-11-20T07:27:11.516Z,80.87
2022-11-20T07:28:25.355Z,81.05
2022-11-20T07:29:31.286Z,80.57
2022-11-20T07:30:39.301Z,80.64
2022-11-20T07:31:42.778Z,80.96
2022-11-20T07:32:57.939Z,81.49
2022-11-20T07:35:23.535Z,81.08
2022-11-20T07:36:27.705Z,80.93
2022-11-20T07:37:34.220Z,80.76
2022-11-20T07:38:37.387Z,80.55
2022-11-20T07:39:40.572Z,80.87
2022-11-20T07:40:43.907Z,81.00
2022-11-20T07:41:47.343Z,81.39
2022-11-20T07:42:53.922Z,81.30
2022-11-20T07:44:02.835Z,81.36
2022-11-20T07:45:12.208Z,81.35
2022-11-20T07:46:19.112Z,81.61
2022-11-20T07:47:36.961Z,81.36
2022-11-20T07:50:02.977Z,81.88
2022-11-20T07:51:07.505Z,82.02
2022-11-20T07:52:18.358Z,81.92
2022-11-20T07:53:28.427Z,82.13
2022-11-20T07:54:31.392Z,81.80
2022-11-20T07:55:38.806Z,81.71
2022-11-20T07:56:46.945Z,82.07
2022-11-20T07:57:51.047Z,81.87
2022-11-20T07:58:54.151Z,82.06
2022-11-20T08:00:08.203Z,82.14
2022-11-20T08:01:18.762Z,82.23
2022-11-20T08:02:22.510Z,82.54
2022-11-20T08:04:49.460Z,82.60
2022-11-20T08:05:53.067Z,83.02
2022-11-20T08:07:00.730Z,83.10
2022-11-20T08:08:04.027Z,83.14
2022-11-20T08:09:13.357Z,83.03
2022-11-20T08:10:17.266Z,82.80
2022-11-20T08:11:20.445Z,83.37
2022-11-20T08:12:23.401Z,83.20
2022-11-20T08:13:34.054Z,83.71
2022-11-20T08:14:37.046Z,83.40
2022-11-20T08:17:00.821Z,83.66
2022-11-20T08:18:29.520Z,83.66
2022-11-20T08:19:10.670Z,83.53
2022-11-20T08:20:14.092Z,83.68
2022-11-20T08:21:17.028Z,83.78
2022-11-20T08:22:20.014Z,83.84
2022-11-20T08:23:23.216Z,83.68
2022-11-20T08:24:26.357Z,83.46
2022-11-20T08:25:31.696Z,83.49
2022-11-20T08:26:34.786Z,83.49
2022-11-20T08:27:42.058Z,83.71
2022-11-20T08:28:46.254Z,83.24
2022-11-20T08:29:49.650Z,83.44
2022-11-20T08:32:16.294Z,83.62
2022-11-20T08:38:44.699Z,83.35
2022-11-20T08:41:22.872Z,83.59
2022-11-20T08:45:18.443Z,83.91
2022-11-20T08:50:26.239Z,83.28
2022-11-20T08:51:29.443Z,83.23
2022-11-20T08:52:33.479Z,83.03
2022-11-20T08:53:36.824Z,82.92
2022-11-20T08:54:39.890Z,83.03
2022-11-20T08:55:43.296Z,82.75
2022-11-20T08:56:46.186Z,82.58
2022-11-20T08:57:51.500Z,82.60
2022-11-20T08:59:18.341Z,83.03
2022-11-20T09:00:06.342Z,83.01
2022-11-20T09:01:08.742Z,82.98
2022-11-20T09:03:38.768Z,82.91
2022-11-20T09:04:42.655Z,82.68
2022-11-20T09:05:46.024Z,82.72
2022-11-20T09:06:49.726Z,82.25
2022-11-20T09:07:55.879Z,81.96
2022-11-20T09:09:09.326Z,81.83
2022-11-20T09:10:29.022Z,81.58
2022-11-20T09:11:21.282Z,81.64
2022-11-20T09:13:29.381Z,81.65
2022-11-20T09:17:28.921Z,81.88
2022-11-20T09:18:31.784Z,81.92
2022-11-20T09:19:36.174Z,81.86
2022-11-20T09:20:39.238Z,82.02
2022-11-20T09:21:42.347Z,82.20
2022-11-20T09:24:07.060Z,82.25
2022-11-20T09:27:58.148Z,82.44
2022-11-20T09:34:34.739Z,82.03
2022-11-20T09:35:37.952Z,82.10
2022-11-20T09:38:07.569Z,82.14
2022-11-20T09:52:26.832Z,81.92
2022-11-20T09:57:38.222Z,82.36
2022-11-20T10:02:56.347Z,82.60
2022-11-20T10:03:59.340Z,82.71
2022-11-20T10:05:03.368Z,82.76
2022-11-20T10:08:59.374Z,83.36
2022-11-20T10:10:06.936Z,83.64
2022-11-20T10:11:14.185Z,83.62
2022-11-20T10:12:30.306Z,83.55
2022-11-20T10:14:54.716Z,83.54
2022-11-20T10:18:44.021Z,83.79
2022-11-20T10:21:07.256Z,84.02
2022-11-20T10:23:39.680Z,84.23
2022-11-20T10:29:02.338Z,84.31
2022-11-20T10:30:05.890Z,84.76
2022-11-20T10:36:24.130Z,85.20
2022-11-20T10:37:41.619Z,85.66
2022-11-20T10:39:01.349Z,86.02
2022-11-20T10:40:04.428Z,85.78
2022-11-20T10:41:07.611Z,85.80
2022-11-20T10:42:15.817Z,85.61
2022-11-20T10:44:39.331Z,86.42
2022-11-20T10:45:46.976Z,86.44
2022-11-20T10:46:49.943Z,86.89
2022-11-20T10:48:07.365Z,86.61
2022-11-20T10:50:31.476Z,86.67
2022-11-20T10:51:34.819Z,86.70
2022-11-20T10:55:25.271Z,87.50
2022-11-20T10:56:34.467Z,87.37
2022-11-20T10:57:38.244Z,87.61
2022-11-20T10:58:50.840Z,87.99
2022-11-20T10:59:54.231Z,88.27
2022-11-20T11:00:58.927Z,88.15
2022-11-20T11:02:05.020Z,88.13
2022-11-20T11:03:07.945Z,88.07
2022-11-20T11:04:10.965Z,88.35
2022-11-20T11:05:16.908Z,88.33
2022-11-20T11:06:22.743Z,88.61
2022-11-20T11:07:32.883Z,88.41
2022-11-20T11:08:35.665Z,88.66
2022-11-20T11:09:38.955Z,89.35
2022-11-20T11:10:41.614Z,89.85
2022-11-20T11:12:00.700Z,90.29
2022-11-20T11:13:07.760Z,89.91
2022-11-20T11:14:24.348Z,90.05
2022-11-20T11:15:29.367Z,89.43
2022-11-20T11:16:32.650Z,89.67
2022-11-20T11:17:35.930Z,90.05
2022-11-20T11:21:30.130Z,90.56
2022-11-20T11:22:33.824Z,90.53
2022-11-20T11:23:44.354Z,90.42
2022-11-20T11:26:09.028Z,90.41
2022-11-20T11:27:16.431Z,90.30
2022-11-20T11:28:16.673Z,90.49
2022-11-20T11:29:20.452Z,90.52
2022-11-20T11:33:16.800Z,91.42
2022-11-20T11:34:27.199Z,91.17
2022-11-20T11:35:34.461Z,91.56
2022-11-20T11:36:44.670Z,91.35
2022-11-20T11:37:48.898Z,91.45
2022-11-20T11:40:22.860Z,91.71
2022-11-20T11:41:03.655Z,91.46
2022-11-20T11:42:15.459Z,91.71
2022-11-20T11:43:17.933Z,91.37
2022-11-20T11:44:22.625Z,91.19
2022-11-20T11:45:26.815Z,91.78
2022-11-20T11:46:33.005Z,91.50
2022-11-20T11:47:36.762Z,91.30
2022-11-20T11:48:40.154Z,91.55
2022-11-20T11:49:45.738Z,91.82
2022-11-20T11:50:48.573Z,91.86
2022-11-20T11:51:54.301Z,91.78
2022-11-20T11:52:58.021Z,91.47
2022-11-20T11:54:00.774Z,91.33
2022-11-20T11:55:09.945Z,91.46
2022-11-20T11:56:10.618Z,91.92
2022-11-20T11:58:43.990Z,92.32
2022-11-20T11:59:48.942Z,93.37
2022-11-20T12:00:51.921Z,93.52
2022-11-20T12:01:55.541Z,93.55
2022-11-20T12:02:59.445Z,92.71
2022-11-20T12:04:12.795Z,92.30
2022-11-20T12:05:21.596Z,93.12
2022-11-20T12:06:24.632Z,93.29
2022-11-20T12:07:50.823Z,92.75
2022-11-20T12:08:44.926Z,93.06
2022-11-20T12:09:48.409Z,93.65
2022-11-20T12:10:51.786Z,94.82
2022-11-20T12:11:58.771Z,95.08
2022-11-20T12:13:01.983Z,94.43
2022-11-20T12:14:04.810Z,94.96
2022-11-20T12:15:09.730Z,95.02
2022-11-20T12:16:13.022Z,94.89
2022-11-20T12:17:15.888Z,95.42
2022-11-20T12:18:19.077Z,96.00
2022-11-20T12:19:22.376Z,96.60
2022-11-20T12:20:25.255Z,96.51
2022-11-20T12:21:28.316Z,96.25
2022-11-20T12:22:31.611Z,96.02
2022-11-20T12:23:34.591Z,96.10
2022-11-20T12:24:39.186Z,96.57
2022-11-20T12:25:42.479Z,96.58
2022-11-20T12:26:45.979Z,96.49
2022-11-20T12:27:52.017Z,96.58
2022-11-20T12:28:55.200Z,96.52
2022-11-20T12:29:58.077Z,96.86
2022-11-20T12:32:24.293Z,98.63
2022-11-20T12:33:27.381Z,98.37
2022-11-20T12:34:36.629Z,97.86
2022-11-20T12:35:39.683Z,98.38
2022-11-20T12:36:52.894Z,98.82
2022-11-20T12:37:56.016Z,99.05
2022-11-20T12:39:01.620Z,99.38
2022-11-20T12:40:04.824Z,100.00
2022-11-20T12:41:11.053Z,100.00
2022-11-20T12:42:15.370Z,99.59
2022-11-20T12:43:18.435Z,99.83
2022-11-20T12:44:37.732Z,99.33
2022-11-20T12:45:41.104Z,99.81
2022-11-20T12:46:44.264Z,99.59
2022-11-20T12:47:53.013Z,99.67
2022-11-20T12:48:55.783Z,100.00
2022-11-20T12:49:59.285Z,100.00
2022-11-20T12:51:15.233Z,100.00
2022-11-20T12:52:06.741Z,100.00
2022-11-20T12:53:09.933Z,100.00
2022-11-20T12:54:15.148Z,100.00
2022-11-20T12:55:18.740Z,100.00
2022-11-20T12:56:22.447Z,100.00
2022-11-20T12:57:27.226Z,100.00
2022-11-20T12:58:30.427Z,100.00
2022-11-20T12:59:37.260Z,100.00
2022-11-20T13:00:40.549Z,100.00
2022-11-20T13:01:43.879Z,100.00
2022-11-20T13:02:48.382Z,100.00
2022-11-20T13:03:51.468Z,100.00
2022-11-20T13:04:56.804Z,100.00
2022-11-20T13:06:03.974Z,100.00
2022-11-20T13:07:06.912Z,100.00
2022-11-20T13:08:14.892Z,100.00
2022-11-20T13:09:21.194Z,100.00
2022-11-20T13:10:24.171Z,100.00
2022-11-20T13:11:32.187Z,100.00
2022-11-20T13:12:37.804Z,100.00
2022-11-20T13:13:40.842Z,100.00
2022-11-20T13:14:44.296Z,100.00
2022-11-20T13:15:47.359Z,100.00
2022-11-20T13:16:50.439Z,100.00
2022-11-20T13:17:58.923Z,100.00
2022-11-20T13:19:02.506Z,100.00
2022-11-20T13:20:18.925Z,100.00
2022-11-20T13:21:21.902Z,100.00
2022-11-20T13:22:28.867Z,100.00
2022-11-20T13:23:50.584Z,100.00
2022-11-20T13:25:05.474Z,100.00
2022-11-20T13:26:08.314Z,100.00
2022-11-20T13:27:14.069Z,100.00
2022-11-20T13:28:17.448Z,100.00
2022-11-20T13:29:32.411Z,100.00
2022-11-20T13:30:44.288Z,100.00
2022-11-20T13:33:18.446Z,100.00
2022-11-20T13:34:22.234Z,100.00
2022-11-20T13:35:31.450Z,100.00
2022-11-20T13:36:45.356Z,100.00
2022-11-20T13:40:41.815Z,100.00
2022-11-20T13:41:57.924Z,100.00
2022-11-20T13:43:07.609Z,100.00
2022-11-20T13:44:16.651Z,100.00
2022-11-20T13:46:46.255Z,100.00
2022-11-20T13:47:51.400Z,100.00
2022-11-20T13:48:58.660Z,100.00
2022-11-20T13:50:08.319Z,100.00
2022-11-20T13:51:12.203Z,100.00
2022-11-20T13:52:20.085Z,100.00
2022-11-20T13:53:34.930Z,100.00
2022-11-20T13:54:39.848Z,100.00
2022-11-20T13:55:43.361Z,100.00
2022-11-20T13:58:24.842Z,100.00
2022-11-20T13:59:27.603Z,100.00
2022-11-20T14:00:37.268Z,100.00
2022-11-20T14:01:42.393Z,100.00
2022-11-20T14:02:46.160Z,100.00
2022-11-20T14:04:06.178Z,100.00
2022-11-20T14:05:03.069Z,100.00
2022-11-20T14:07:26.787Z,100.00
2022-11-20T14:08:29.511Z,100.00
2022-11-20T14:09:32.338Z,100.00
2022-11-20T14:10:35.483Z,100.00
2022-11-20T14:11:43.462Z,100.00
2022-11-20T14:12:46.969Z,100.00
2022-11-20T14:13:52.397Z,100.00
2022-11-20T14:16:17.405Z,100.00
2022-11-20T14:17:20.871Z,100.00
2022-11-20T14:18:30.330Z,100.00
2022-11-20T14:19:34.751Z,100.00
2022-11-20T14:20:38.225Z,100.00
2022-11-20T14:21:41.080Z,100.00
2022-11-20T14:22:44.260Z,100.00
2022-11-20T14:23:50.929Z,100.00
2022-11-20T14:24:59.444Z,100.00
2022-11-20T14:26:11.351Z,100.00
2022-11-20T14:27:20.063Z,100.00
2022-11-20T14:28:25.162Z,100.00
2022-11-20T14:30:48.932Z,100.00
2022-11-20T14:33:15.577Z,100.00
2022-11-20T14:35:40.767Z,100.00
2022-11-20T14:36:56.155Z,100.00
2022-11-20T14:38:01.859Z,100.00
2022-11-20T14:39:07.108Z,100.00
2022-11-20T14:40:10.089Z,100.00
2022-11-20T14:41:13.682Z,100.00
2022-11-20T14:42:17.904Z,100.00
2022-11-20T14:43:21.069Z,100.00
2022-11-20T14:45:45.053Z,100.00
2022-11-20T14:46:54.173Z,100.00
2022-11-20T14:47:59.704Z,100.00
2022-11-20T14:49:03.005Z,100.00
2022-11-20T14:50:10.070Z,100.00
2022-11-20T14:51:17.333Z,100.00
2022-11-20T14:53:52.661Z,100.00
2022-11-20T14:57:47.693Z,100.00
2022-11-20T15:00:11.685Z,100.00
2022-11-20T15:01:14.442Z,100.00
2022-11-20T15:02:19.896Z,100.00
2022-11-20T15:03:26.531Z,100.00
2022-11-20T15:04:38.859Z,100.00
2022-11-20T15:07:10.738Z,100.00
2022-11-20T15:08:21.060Z,100.00
2022-11-20T15:09:32.385Z,100.00
2022-11-20T15:10:41.477Z,100.00
2022-11-20T15:12:01.098Z,100.00
2022-11-20T15:14:26.200Z,100.00
2022-11-20T15:15:32.875Z,100.00
2022-11-20T15:16:37.689Z,100.00
2022-11-20T15:17:40.887Z,100.00
2022-11-20T15:18:44.985Z,100.00
2022-11-20T15:21:23.298Z,100.00
2022-11-20T15:22:26.074Z,100.00
2022-11-20T15:23:29.965Z,100.00
2022-11-20T15:25:53.933Z,100.00
2022-11-20T15:26:56.820Z,100.00
2022-11-20T15:27:59.886Z,100.00
2022-11-20T15:29:13.182Z,100.00
2022-11-20T15:30:17.232Z,100.00
2022-11-20T15:31:25.428Z,100.00
2022-11-20T15:32:35.414Z,100.00
2022-11-20T15:33:41.613Z,100.00
2022-11-20T15:36:05.171Z,100.00
2022-11-20T15:38:29.521Z,100.00
2022-11-20T15:39:34.900Z,100.00
2022-11-20T15:41:58.556Z,100.00
2022-11-20T15:44:25.235Z,100.00
2022-11-20T15:45:38.971Z,100.00
2022-11-20T15:46:54.154Z,100.00
2022-11-20T15:47:57.092Z,100.00
2022-11-20T15:51:42.280Z,100.00
2022-11-20T15:52:45.750Z,100.00
2022-11-20T15:55:15.867Z,100.00
2022-11-20T15:59:05.345Z,100.00
2022-11-20T16:00:23.367Z,100.00
2022-11-20T16:01:35.146Z,100.00
2022-11-20T16:02:39.316Z,100.00
2022-11-20T16:03:42.958Z,100.00
2022-11-20T16:06:08.880Z,100.00
2022-11-20T16:07:17.441Z,100.00
2022-11-20T16:08:23.138Z,100.00
2022-11-20T16:12:19.617Z,100.00
2022-11-20T16:14:53.918Z,100.00
2022-11-20T16:17:18.093Z,100.00
2022-11-20T16:18:27.007Z,100.00
2022-11-20T16:20:59.460Z,100.00
2022-11-20T16:22:03.585Z,100.00
2022-11-20T16:24:27.761Z,100.00
2022-11-20T16:25:30.934Z,100.00
2022-11-20T16:26:39.830Z,100.00
2022-11-20T16:28:00.460Z,100.00
2022-11-20T16:29:03.319Z,100.00
2022-11-20T16:30:06.400Z,100.00
2022-11-20T16:31:11.831Z,100.00
2022-11-20T16:34:56.926Z,100.00
2022-11-20T16:35:59.991Z,100.00
2022-11-20T16:37:03.362Z,100.00
2022-11-20T16:38:06.823Z,100.00
2022-11-20T16:39:26.641Z,100.00